createdAt,value
2022-12-25T00:00:03.000Z,96683
2022-12-25T00:05:03.000Z,96686
2022-12-25T00:10:00.000Z,96683
2022-12-25T00:15:04.000Z,96678
2022-12-25T00:20:04.000Z,96676
2022-12-25T00:25:02.000Z,96672
2022-12-25T00:30:04.000Z,96671
2022-12-25T00:35:02.000Z,96657
2022-12-25T00:40:01.000Z,96656
2022-12-25T00:45:02.000Z,96656
2022-12-25T00:50:02.000Z,96643
2022-12-25T00:55:08.000Z,96652
2022-12-25T01:00:04.000Z,96652
2022-12-25T01:05:01.000Z,96647
2022-12-25T01:10:03.000Z,96648
2022-12-25T01:15:05.000Z,96656
2022-12-25T01:20:06.000Z,96642
2022-12-25T01:25:07.000Z,96637
2022-12-25T01:30:02.000Z,96637
2022-12-25T01:35:01.000Z,96643
2022-12-25T01:40:07.000Z,96634
2022-12-25T01:45:03.000Z,96638
2022-12-25T01:50:07.000Z,96636
2022-12-25T01:55:03.000Z,96656
2022-12-25T02:00:02.000Z,96650
2022-12-25T02:05:06.000Z,96636
2022-12-25T02:10:05.000Z,96636
2022-12-25T02:15:02.000Z,96637
2022-12-25T02:20:03.000Z,96634
2022-12-25T02:25:02.000Z,96636
2022-12-25T02:30:02.000Z,96630
2022-12-25T02:35:06.000Z,96631
2022-12-25T02:40:06.000Z,96634
2022-12-25T02:45:01.000Z,96624
2022-12-25T02:50:01.000Z,96631
2022-12-25T02:55:07.000Z,96627
2022-12-25T03:00:07.000Z,96636
2022-12-25T03:05:05.000Z,96638
2022-12-25T03:10:06.000Z,96628
2022-12-25T03:15:06.000Z,96626
2022-12-25T03:20:07.000Z,96612
2022-12-25T03:25:05.000Z,96618
2022-12-25T03:30:01.000Z,96617
2022-12-25T03:35:04.000Z,96614
2022-12-25T03:40:06.000Z,96604
2022-12-25T03:45:05.000Z,96608
2022-12-25T03:50:05.000Z,96610
2022-12-25T03:55:03.000Z,96612
2022-12-25T04:00:02.000Z,96593
2022-12-25T04:05:04.000Z,96578
2022-12-25T04:10:02.000Z,96584
2022-12-25T04:15:05.000Z,96583
2022-12-25T04:20:07.000Z,96594
2022-12-25T04:25:05.000Z,96591
2022-12-25T04:30:04.000Z,96571
2022-12-25T04:35:03.000Z,96574
2022-12-25T04:40:02.000Z,96584
2022-12-25T04:45:03.000Z,96586
2022-12-25T04:50:02.000Z,96577
2022-12-25T04:55:04.000Z,96581
2022-12-25T05:00:02.000Z,96581
2022-12-25T05:05:01.000Z,96565
2022-12-25T05:10:08.000Z,96568
2022-12-25T05:15:05.000Z,96568
2022-12-25T05:20:05.000Z,96560
2022-12-25T05:25:02.000Z,96552
2022-12-25T05:30:08.000Z,96554
2022-12-25T05:35:04.000Z,96546
2022-12-25T05:40:01.000Z,96535
2022-12-25T05:45:03.000Z,96543
2022-12-25T05:50:05.000Z,96532
2022-12-25T05:55:05.000Z,96536
2022-12-25T06:00:05.000Z,96532
2022-12-25T06:05:07.000Z,96536
2022-12-25T06:10:02.000Z,96543
2022-12-25T06:15:04.000Z,96531
2022-12-25T06:20:01.000Z,96531
2022-12-25T06:25:01.000Z,96532
2022-12-25T06:30:05.000Z,96527
2022-12-25T06:35:07.000Z,96515
2022-12-25T06:40:07.000Z,96519
2022-12-25T06:45:03.000Z,96529
2022-12-25T06:50:02.000Z,96530
2022-12-25T06:55:01.000Z,96510
2022-12-25T07:00:03.000Z,96528
2022-12-25T07:05:05.000Z,96512
2022-12-25T07:10:01.000Z,96509
2022-12-25T07:15:03.000Z,96506
2022-12-25T07:19:59.000Z,96521
2022-12-25T07:25:06.000Z,96524
2022-12-25T07:30:00.000Z,96518
2022-12-25T07:35:01.000Z,96525
2022-12-25T07:40:04.000Z,96533
2022-12-25T07:45:04.000Z,96526
2022-12-25T07:50:05.000Z,96527
2022-12-25T07:55:04.000Z,96520
2022-12-25T08:00:05.000Z,96538
2022-12-25T08:05:04.000Z,96550
2022-12-25T08:10:02.000Z,96568
2022-12-25T08:15:03.000Z,96553
2022-12-25T08:20:02.000Z,96558
2022-12-25T08:25:03.000Z,96552
2022-12-25T08:30:04.000Z,96566
2022-12-25T08:35:02.000Z,96565
2022-12-25T08:40:02.000Z,96561
2022-12-25T08:45:05.000Z,96561
2022-12-25T08:50:02.000Z,96557
2022-12-25T08:55:02.000Z,96560
2022-12-25T09:00:04.000Z,96565
2022-12-25T09:05:05.000Z,96564
2022-12-25T09:10:03.000Z,96562
2022-12-25T09:15:05.000Z,96562
2022-12-25T09:20:05.000Z,96567
2022-12-25T09:25:05.000Z,96567
2022-12-25T09:30:05.000Z,96567
2022-12-25T09:35:05.000Z,96573
2022-12-25T09:40:05.000Z,96571
2022-12-25T09:45:05.000Z,96569
2022-12-25T09:50:05.000Z,96564
2022-12-25T09:55:05.000Z,96573
2022-12-25T10:00:05.000Z,96557
2022-12-25T10:05:06.000Z,96563
2022-12-25T10:10:06.000Z,96553
2022-12-25T10:15:06.000Z,96550
2022-12-25T10:20:06.000Z,96538
2022-12-25T10:25:06.000Z,96564
2022-12-25T10:30:06.000Z,96553
2022-12-25T10:35:06.000Z,96547
2022-12-25T10:40:06.000Z,96544
2022-12-25T10:45:06.000Z,96537
2022-12-25T10:50:06.000Z,96538
2022-12-25T10:55:06.000Z,96537
2022-12-25T11:00:06.000Z,96541
2022-12-25T11:05:06.000Z,96547
2022-12-25T11:10:06.000Z,96526
2022-12-25T11:15:06.000Z,96514
2022-12-25T11:20:06.000Z,96510
2022-12-25T11:25:06.000Z,96504
2022-12-25T11:30:06.000Z,96488
2022-12-25T11:35:06.000Z,96480
2022-12-25T11:40:06.000Z,96477
2022-12-25T11:45:06.000Z,96459
2022-12-25T11:50:06.000Z,96464
2022-12-25T11:55:06.000Z,96465
2022-12-25T12:00:06.000Z,96465
2022-12-25T12:05:06.000Z,96464
2022-12-25T12:10:06.000Z,96484
2022-12-25T12:15:06.000Z,96466
2022-12-25T12:20:06.000Z,96470
2022-12-25T12:25:06.000Z,96450
2022-12-25T12:30:06.000Z,96440
2022-12-25T12:35:06.000Z,96448
2022-12-25T12:40:06.000Z,96460
2022-12-25T12:45:06.000Z,96476
2022-12-25T12:50:06.000Z,96482
2022-12-25T12:55:06.000Z,96479
2022-12-25T13:00:06.000Z,96482
2022-12-25T13:05:06.000Z,96501
2022-12-25T13:10:06.000Z,96492
2022-12-25T13:15:06.000Z,96484
2022-12-25T13:20:06.000Z,96470
2022-12-25T13:25:06.000Z,96489
2022-12-25T13:30:06.000Z,96483
2022-12-25T13:35:06.000Z,96492
2022-12-25T13:40:06.000Z,96506
2022-12-25T13:45:06.000Z,96508
2022-12-25T13:50:06.000Z,96500
2022-12-25T13:55:06.000Z,96502
2022-12-25T14:00:06.000Z,96506
2022-12-25T14:05:06.000Z,96514
2022-12-25T14:10:06.000Z,96529
2022-12-25T14:15:06.000Z,96522
2022-12-25T14:20:06.000Z,96515
2022-12-25T14:25:06.000Z,96528
2022-12-25T14:30:06.000Z,96513
2022-12-25T14:35:06.000Z,96514
2022-12-25T14:40:06.000Z,96515
2022-12-25T14:45:06.000Z,96521
2022-12-25T14:50:06.000Z,96519
2022-12-25T14:55:06.000Z,96522
2022-12-25T15:00:06.000Z,96499
2022-12-25T15:05:06.000Z,96525
2022-12-25T15:10:06.000Z,96522
2022-12-25T15:15:06.000Z,96515
2022-12-25T15:20:06.000Z,96520
2022-12-25T15:25:06.000Z,96516
2022-12-25T15:30:06.000Z,96523
2022-12-25T15:35:06.000Z,96525
2022-12-25T15:40:06.000Z,96526
2022-12-25T15:45:06.000Z,96513
2022-12-25T15:50:06.000Z,96522
2022-12-25T15:55:06.000Z,96502
2022-12-25T16:00:06.000Z,96524
2022-12-25T16:05:06.000Z,96506
2022-12-25T16:10:06.000Z,96519
2022-12-25T16:15:06.000Z,96527
2022-12-25T16:20:06.000Z,96539
2022-12-25T16:25:06.000Z,96534
2022-12-25T16:30:06.000Z,96525
2022-12-25T16:35:06.000Z,96531
2022-12-25T16:40:06.000Z,96540
2022-12-25T16:45:06.000Z,96547
2022-12-25T16:50:06.000Z,96560
2022-12-25T16:55:06.000Z,96555
2022-12-25T17:00:06.000Z,96563
2022-12-25T17:05:06.000Z,96560
2022-12-25T17:10:06.000Z,96548
2022-12-25T17:15:06.000Z,96552
2022-12-25T17:20:06.000Z,96549
2022-12-25T17:25:06.000Z,96548
2022-12-25T17:30:06.000Z,96553
2022-12-25T17:35:06.000Z,96565
2022-12-25T17:40:06.000Z,96569
2022-12-25T17:45:06.000Z,96581
2022-12-25T17:50:06.000Z,96584
2022-12-25T17:55:06.000Z,96591
2022-12-25T18:00:06.000Z,96605
2022-12-25T18:05:06.000Z,96622
2022-12-25T18:10:06.000Z,96621
2022-12-25T18:15:06.000Z,96620
2022-12-25T18:20:06.000Z,96620
2022-12-25T18:25:06.000Z,96619
2022-12-25T18:30:06.000Z,96610
2022-12-25T18:35:06.000Z,96612
2022-12-25T18:40:06.000Z,96590
2022-12-25T18:45:06.000Z,96582
2022-12-25T18:50:06.000Z,96611
2022-12-25T18:55:06.000Z,96610
2022-12-25T19:00:06.000Z,96606
2022-12-25T19:05:06.000Z,96602
2022-12-25T19:10:06.000Z,96605
2022-12-25T19:15:06.000Z,96618
2022-12-25T19:20:06.000Z,96595
2022-12-25T19:25:06.000Z,96602
2022-12-25T19:30:06.000Z,96606
2022-12-25T19:35:06.000Z,96619
2022-12-25T19:40:06.000Z,96623
2022-12-25T19:45:06.000Z,96616
2022-12-25T19:50:06.000Z,96614
2022-12-25T19:55:06.000Z,96619
2022-12-25T20:00:06.000Z,96621
2022-12-25T20:05:06.000Z,96632
2022-12-25T20:10:06.000Z,96608
2022-12-25T20:15:06.000Z,96620
2022-12-25T20:20:06.000Z,96626
2022-12-25T20:25:06.000Z,96617
2022-12-25T20:30:06.000Z,96617
2022-12-25T20:35:06.000Z,96622
2022-12-25T20:40:06.000Z,96632
2022-12-25T20:45:06.000Z,96644
2022-12-25T20:50:06.000Z,96666
2022-12-25T20:55:06.000Z,96657
2022-12-25T21:00:06.000Z,96665
2022-12-25T21:05:06.000Z,96672
2022-12-25T21:10:06.000Z,96680
2022-12-25T21:15:06.000Z,96673
2022-12-25T21:20:06.000Z,96673
2022-12-25T21:25:06.000Z,96674
2022-12-25T21:30:06.000Z,96682
2022-12-25T21:35:06.000Z,96684
2022-12-25T21:40:06.000Z,96696
2022-12-25T21:45:06.000Z,96700
2022-12-25T21:50:06.000Z,96722
2022-12-25T21:55:06.000Z,96712
2022-12-25T22:00:06.000Z,96705
2022-12-25T22:05:06.000Z,96708
2022-12-25T22:10:06.000Z,96724
2022-12-25T22:15:06.000Z,96720
2022-12-25T22:20:06.000Z,96720
2022-12-25T22:25:06.000Z,96743
2022-12-25T22:30:06.000Z,96739
2022-12-25T22:35:06.000Z,96718
2022-12-25T22:40:06.000Z,96734
2022-12-25T22:45:06.000Z,96735
2022-12-25T22:50:06.000Z,96749
2022-12-25T22:55:06.000Z,96756
2022-12-25T23:00:06.000Z,96763
2022-12-25T23:05:06.000Z,96768
2022-12-25T23:10:06.000Z,96761
2022-12-25T23:15:06.000Z,96763
2022-12-25T23:20:06.000Z,96762
2022-12-25T23:25:06.000Z,96768
2022-12-25T23:30:06.000Z,96775
2022-12-25T23:35:06.000Z,96780
2022-12-25T23:40:06.000Z,96789
2022-12-25T23:45:06.000Z,96790
2022-12-25T23:50:06.000Z,96787
2022-12-25T23:55:06.000Z,96794
